createdAt,value
2022-11-30T00:01:57.948Z,12.88
2022-11-30T00:04:02.782Z,12.68
2022-11-30T00:06:08.926Z,12.38
2022-11-30T00:08:13.688Z,11.85
2022-11-30T00:10:19.116Z,12.13
2022-11-30T00:12:23.935Z,11.60
2022-11-30T00:14:31.341Z,12.02
2022-11-30T00:16:36.183Z,11.77
2022-11-30T00:18:41.043Z,12.05
2022-11-30T00:20:45.821Z,10.55
2022-11-30T00:22:50.702Z,11.70
2022-11-30T00:24:55.457Z,11.55
2022-11-30T00:27:00.247Z,11.23
2022-11-30T00:29:05.021Z,11.27
2022-11-30T00:31:15.644Z,11.65
2022-11-30T00:33:20.461Z,10.35
2022-11-30T00:35:25.247Z,10.23
2022-11-30T00:37:30.020Z,10.38
2022-11-30T00:39:35.729Z,9.60
2022-11-30T00:41:40.689Z,9.90
2022-11-30T00:43:48.028Z,9.90
2022-11-30T00:45:52.803Z,9.90
2022-11-30T00:48:00.245Z,10.43
2022-11-30T00:50:05.204Z,10.07
2022-11-30T00:52:10.029Z,9.95
2022-11-30T00:54:14.805Z,9.30
2022-11-30T00:56:19.674Z,10.45
2022-11-30T00:58:25.748Z,9.70
2022-11-30T01:00:31.372Z,9.93
2022-11-30T01:02:36.220Z,10.07
2022-11-30T01:04:43.720Z,9.70
2022-11-30T01:06:48.722Z,9.32
2022-11-30T01:10:58.511Z,9.48
2022-11-30T01:13:03.402Z,10.00
2022-11-30T01:15:08.814Z,9.32
2022-11-30T01:17:13.607Z,9.10
2022-11-30T01:19:18.484Z,9.63
2022-11-30T01:21:27.917Z,9.15
2022-11-30T01:23:32.675Z,9.35
2022-11-30T01:25:37.470Z,9.65
2022-11-30T01:27:42.192Z,9.10
2022-11-30T01:29:47.045Z,9.93
2022-11-30T01:31:51.814Z,9.52
2022-11-30T01:33:58.376Z,10.50
2022-11-30T01:36:04.553Z,9.10
2022-11-30T01:38:12.037Z,9.38
2022-11-30T01:40:17.034Z,10.30
2022-11-30T01:42:23.134Z,10.13
2022-11-30T01:46:53.865Z,11.05
2022-11-30T01:49:06.266Z,11.00
2022-11-30T01:51:11.110Z,10.75
2022-11-30T01:53:18.540Z,11.00
2022-11-30T01:55:27.038Z,11.20
2022-11-30T01:57:41.032Z,11.38
2022-11-30T01:59:45.957Z,12.10
2022-11-30T02:01:54.420Z,11.07
2022-11-30T02:04:04.962Z,12.10
2022-11-30T02:06:10.905Z,11.98
2022-11-30T02:08:18.804Z,11.88
2022-11-30T02:10:28.338Z,12.38
2022-11-30T02:12:43.092Z,11.18
2022-11-30T02:14:52.297Z,11.68
2022-11-30T02:17:04.633Z,11.13
2022-11-30T02:19:29.238Z,11.18
2022-11-30T02:21:43.354Z,11.82
2022-11-30T02:24:14.660Z,12.27
2022-11-30T02:26:41.255Z,12.10
2022-11-30T02:29:07.422Z,12.57
2022-11-30T02:31:17.868Z,12.70
2022-11-30T02:33:27.208Z,11.30
2022-11-30T02:35:35.868Z,12.00
2022-11-30T02:37:42.299Z,12.27
2022-11-30T02:39:47.520Z,12.20
2022-11-30T02:44:01.250Z,11.98
2022-11-30T02:46:14.265Z,12.43
2022-11-30T02:48:23.837Z,11.95
2022-11-30T02:50:33.909Z,11.88
2022-11-30T02:52:38.851Z,11.20
2022-11-30T02:54:43.796Z,10.52
2022-11-30T02:56:48.822Z,11.00
2022-11-30T02:58:53.624Z,11.32
2022-11-30T03:01:01.168Z,12.18
2022-11-30T03:03:06.037Z,11.82
2022-11-30T03:05:11.867Z,11.25
2022-11-30T03:07:16.816Z,10.43
2022-11-30T03:09:21.631Z,10.85
2022-11-30T03:11:26.370Z,11.35
2022-11-30T03:13:31.272Z,10.38
2022-11-30T03:15:36.127Z,11.75
2022-11-30T03:17:43.530Z,11.93
2022-11-30T03:19:48.465Z,11.43
2022-11-30T03:21:53.277Z,10.95
2022-11-30T03:23:58.116Z,11.23
2022-11-30T03:26:02.946Z,11.23
2022-11-30T03:28:07.964Z,11.95
2022-11-30T03:30:14.011Z,11.57
2022-11-30T03:32:18.837Z,11.20
2022-11-30T03:34:27.734Z,11.57
2022-11-30T03:36:32.501Z,12.10
2022-11-30T03:38:37.510Z,11.30
2022-11-30T03:40:42.495Z,11.43
2022-11-30T03:42:47.371Z,12.45
2022-11-30T03:44:52.137Z,12.00
2022-11-30T03:46:56.979Z,12.60
2022-11-30T03:49:01.754Z,12.45
2022-11-30T03:51:09.296Z,11.98
2022-11-30T03:53:14.069Z,11.45
2022-11-30T03:55:19.121Z,12.75
2022-11-30T03:57:24.030Z,11.60
2022-11-30T03:59:28.855Z,11.18
2022-11-30T04:01:33.698Z,11.30
2022-11-30T04:03:39.193Z,11.90
2022-11-30T04:05:45.511Z,11.73
2022-11-30T04:07:52.947Z,11.75
2022-11-30T04:09:57.828Z,10.95
2022-11-30T04:12:02.632Z,10.90
2022-11-30T04:14:07.469Z,11.70
2022-11-30T04:16:12.653Z,12.27
2022-11-30T04:20:22.335Z,11.75
2022-11-30T04:22:27.232Z,12.07
2022-11-30T04:24:34.612Z,11.95
2022-11-30T04:26:39.687Z,11.73
2022-11-30T04:30:50.695Z,12.25
2022-11-30T04:32:55.509Z,12.48
2022-11-30T04:35:00.377Z,12.10
2022-11-30T04:37:05.149Z,12.15
2022-11-30T04:39:09.911Z,12.80
2022-11-30T04:41:17.728Z,13.60
2022-11-30T04:43:23.227Z,13.63
2022-11-30T04:45:32.488Z,12.60
2022-11-30T04:47:40.021Z,13.45
2022-11-30T04:49:44.760Z,13.00
2022-11-30T04:51:49.603Z,12.00
2022-11-30T04:53:54.571Z,13.48
2022-11-30T04:55:59.437Z,13.55
2022-11-30T04:58:06.823Z,14.40
2022-11-30T05:00:14.091Z,14.23
2022-11-30T05:02:18.986Z,13.52
2022-11-30T05:04:23.839Z,14.68
2022-11-30T05:06:28.766Z,13.82
2022-11-30T05:08:33.782Z,13.77
2022-11-30T05:10:38.673Z,15.05
2022-11-30T05:12:43.578Z,14.50
2022-11-30T05:14:50.984Z,15.32
2022-11-30T05:16:55.816Z,15.13
2022-11-30T05:19:00.647Z,15.15
2022-11-30T05:21:05.840Z,14.98
2022-11-30T05:25:15.223Z,14.45
2022-11-30T05:27:22.657Z,15.40
2022-11-30T05:29:27.708Z,16.10
2022-11-30T05:31:35.348Z,16.10
2022-11-30T05:33:40.215Z,15.40
2022-11-30T05:35:46.093Z,17.23
2022-11-30T05:37:50.862Z,16.85
2022-11-30T05:39:55.632Z,15.52
2022-11-30T05:42:00.497Z,17.52
2022-11-30T05:44:05.320Z,16.25
2022-11-30T05:46:12.233Z,17.10
2022-11-30T05:48:19.754Z,17.08
2022-11-30T05:50:24.682Z,18.65
2022-11-30T05:52:29.487Z,18.30
2022-11-30T05:54:34.344Z,17.38
2022-11-30T05:56:39.133Z,16.85
2022-11-30T05:58:45.233Z,18.00
2022-11-30T06:00:50.433Z,19.35
2022-11-30T06:02:59.066Z,19.80
2022-11-30T06:05:06.724Z,18.08
2022-11-30T06:07:12.240Z,18.15
2022-11-30T06:09:17.052Z,18.65
2022-11-30T06:11:21.827Z,17.75
2022-11-30T06:13:28.995Z,18.88
2022-11-30T06:15:33.871Z,18.63
2022-11-30T06:17:38.940Z,17.27
2022-11-30T06:19:43.833Z,17.60
2022-11-30T06:21:54.545Z,18.27
2022-11-30T06:24:00.087Z,18.17
2022-11-30T06:26:07.637Z,18.52
2022-11-30T06:28:13.815Z,17.95
2022-11-30T06:30:18.894Z,19.20
2022-11-30T06:32:23.714Z,19.10
2022-11-30T06:34:28.545Z,18.42
2022-11-30T06:36:36.243Z,19.38
2022-11-30T06:38:43.828Z,20.40
2022-11-30T06:40:48.911Z,19.83
2022-11-30T06:42:53.752Z,18.65
2022-11-30T06:44:58.605Z,20.00
2022-11-30T06:47:03.474Z,18.50
2022-11-30T06:49:08.372Z,18.83
2022-11-30T06:53:18.064Z,19.77
2022-11-30T06:55:25.476Z,18.48
2022-11-30T06:57:31.002Z,20.63
2022-11-30T06:59:36.979Z,18.77
2022-11-30T07:01:41.801Z,19.90
2022-11-30T07:03:46.769Z,19.42
2022-11-30T07:05:51.587Z,18.08
2022-11-30T07:07:56.430Z,19.27
2022-11-30T07:10:01.608Z,20.25
2022-11-30T07:14:14.052Z,19.42
2022-11-30T07:16:19.031Z,21.92
2022-11-30T07:18:28.482Z,19.55
2022-11-30T07:20:36.703Z,19.67
2022-11-30T07:22:41.509Z,20.08
2022-11-30T07:24:58.755Z,19.98
2022-11-30T07:27:05.435Z,20.10
2022-11-30T07:29:12.956Z,20.65
2022-11-30T07:31:20.746Z,20.45
2022-11-30T07:33:25.611Z,19.80
2022-11-30T07:35:30.510Z,22.02
2022-11-30T07:37:35.331Z,20.85
2022-11-30T07:39:40.158Z,21.17
2022-11-30T07:41:48.337Z,20.90
2022-11-30T07:43:56.142Z,20.40
2022-11-30T07:46:04.326Z,22.02
2022-11-30T07:48:09.923Z,21.40
2022-11-30T07:50:14.961Z,20.10
2022-11-30T07:52:19.759Z,21.67
2022-11-30T07:54:24.572Z,20.40
2022-11-30T07:56:30.530Z,21.33
2022-11-30T07:58:35.718Z,20.83
2022-11-30T08:00:41.549Z,19.02
2022-11-30T08:02:52.999Z,22.05
2022-11-30T08:04:58.851Z,19.80
2022-11-30T08:07:03.798Z,21.00
2022-11-30T08:09:08.780Z,20.63
2022-11-30T08:11:15.155Z,20.77
2022-11-30T08:13:19.903Z,21.67
2022-11-30T08:15:31.822Z,19.92
2022-11-30T08:17:37.444Z,20.55
2022-11-30T08:19:44.810Z,22.33
2022-11-30T08:21:49.568Z,20.65
2022-11-30T08:23:56.940Z,21.15
2022-11-30T08:26:08.170Z,21.08
2022-11-30T08:28:12.991Z,21.75
2022-11-30T08:30:18.294Z,19.27
2022-11-30T08:32:23.202Z,22.17
2022-11-30T08:34:28.307Z,22.02
2022-11-30T08:38:42.127Z,21.63
2022-11-30T08:40:47.015Z,22.27
2022-11-30T08:42:51.805Z,23.05
2022-11-30T08:44:56.655Z,22.73
2022-11-30T08:47:01.475Z,21.55
2022-11-30T08:49:21.054Z,23.15
2022-11-30T08:51:27.157Z,21.42
2022-11-30T08:53:34.614Z,21.88
2022-11-30T08:55:39.493Z,21.55
2022-11-30T08:57:46.571Z,20.30
2022-11-30T08:59:53.944Z,22.20
2022-11-30T09:01:58.725Z,20.55
2022-11-30T09:04:03.509Z,22.48
2022-11-30T09:06:09.400Z,21.48
2022-11-30T09:08:14.213Z,22.08
2022-11-30T09:10:21.749Z,21.90
2022-11-30T09:12:26.648Z,22.38
2022-11-30T09:14:31.784Z,20.88
2022-11-30T09:16:36.519Z,21.05
2022-11-30T09:18:42.270Z,21.85
2022-11-30T09:20:47.019Z,21.20
2022-11-30T09:22:52.599Z,20.92
2022-11-30T09:24:57.591Z,20.65
2022-11-30T09:27:05.038Z,20.40
2022-11-30T09:29:09.916Z,23.40
2022-11-30T09:31:17.437Z,24.38
2022-11-30T09:33:23.382Z,23.95
2022-11-30T09:35:28.292Z,24.55
2022-11-30T09:37:33.105Z,24.50
2022-11-30T09:39:37.946Z,24.70
2022-11-30T09:42:09.705Z,23.17
2022-11-30T09:44:26.204Z,24.08
2022-11-30T09:46:36.588Z,26.08
2022-11-30T09:48:58.829Z,24.75
2022-11-30T09:51:11.714Z,24.70
2022-11-30T09:53:29.141Z,24.83
2022-11-30T09:55:39.386Z,21.02
2022-11-30T09:57:48.849Z,21.55
2022-11-30T09:59:59.786Z,20.95
2022-11-30T10:02:16.522Z,19.48
2022-11-30T10:04:25.765Z,20.67
2022-11-30T10:06:36.470Z,21.45
2022-11-30T10:08:53.100Z,20.50
2022-11-30T10:11:18.565Z,20.05
2022-11-30T10:13:39.357Z,19.70
2022-11-30T10:15:57.041Z,20.50
2022-11-30T10:18:13.717Z,20.58
2022-11-30T10:20:43.988Z,19.80
2022-11-30T10:23:05.465Z,20.27
2022-11-30T10:25:19.649Z,19.45
2022-11-30T10:27:39.037Z,20.58
2022-11-30T10:29:48.139Z,20.00
2022-11-30T10:32:02.077Z,18.10
2022-11-30T10:34:21.222Z,20.45
2022-11-30T10:36:32.375Z,18.23
2022-11-30T10:38:42.605Z,19.73
2022-11-30T10:40:53.905Z,19.50
2022-11-30T10:43:07.532Z,21.02
2022-11-30T10:45:15.223Z,21.55
2022-11-30T10:47:27.006Z,19.98
2022-11-30T10:49:34.734Z,20.85
2022-11-30T10:51:43.873Z,19.58
2022-11-30T10:53:51.722Z,20.73
2022-11-30T10:56:03.140Z,20.27
2022-11-30T10:58:15.846Z,20.00
2022-11-30T11:00:21.305Z,19.48
2022-11-30T11:02:45.950Z,21.23
2022-11-30T11:04:50.787Z,20.15
2022-11-30T11:06:58.635Z,22.33
2022-11-30T11:09:38.286Z,20.92
2022-11-30T11:11:43.354Z,19.88
2022-11-30T11:13:48.223Z,21.90
2022-11-30T11:16:00.983Z,23.60
2022-11-30T11:18:29.034Z,19.52
2022-11-30T11:20:39.058Z,19.58
2022-11-30T11:22:46.961Z,20.42
2022-11-30T11:24:53.361Z,20.45
2022-11-30T11:26:59.250Z,20.25
2022-11-30T11:29:04.079Z,21.00
2022-11-30T11:31:20.955Z,21.30
2022-11-30T11:33:29.797Z,20.85
2022-11-30T11:35:38.284Z,20.50
2022-11-30T11:37:53.577Z,21.30
2022-11-30T11:40:08.381Z,21.25
2022-11-30T11:42:22.588Z,20.52
2022-11-30T11:44:30.188Z,20.05
2022-11-30T11:46:37.459Z,20.40
2022-11-30T11:48:54.035Z,20.55
2022-11-30T11:51:08.098Z,22.08
2022-11-30T11:53:28.076Z,21.35
2022-11-30T11:55:33.084Z,19.45
2022-11-30T11:57:46.815Z,22.85
2022-11-30T11:59:57.554Z,26.02
2022-11-30T12:02:07.847Z,22.90
2022-11-30T12:04:37.988Z,21.60
2022-11-30T12:06:44.702Z,21.58
2022-11-30T12:08:53.745Z,20.48
2022-11-30T12:11:04.951Z,20.33
2022-11-30T12:13:16.985Z,19.63
2022-11-30T12:15:21.843Z,19.60
2022-11-30T12:17:39.979Z,21.40
2022-11-30T12:19:57.884Z,21.33
2022-11-30T12:22:10.289Z,19.52
2022-11-30T12:24:32.502Z,20.85
2022-11-30T12:26:44.025Z,20.50
2022-11-30T12:29:09.000Z,20.38
2022-11-30T12:31:18.012Z,20.10
2022-11-30T12:33:32.402Z,19.08
2022-11-30T12:35:48.669Z,19.15
2022-11-30T12:38:02.578Z,20.55
2022-11-30T12:40:24.111Z,18.52
2022-11-30T12:42:38.402Z,19.98
2022-11-30T12:44:56.119Z,17.98
2022-11-30T12:47:10.226Z,20.58
2022-11-30T12:49:30.657Z,18.92
2022-11-30T12:51:46.892Z,19.52
2022-11-30T12:53:58.574Z,19.90
2022-11-30T12:56:15.820Z,18.67
2022-11-30T12:58:28.486Z,18.60
2022-11-30T13:00:42.578Z,18.85
2022-11-30T13:03:03.481Z,22.30
2022-11-30T13:05:13.682Z,18.98
2022-11-30T13:07:30.621Z,18.83
2022-11-30T13:09:40.706Z,17.95
2022-11-30T13:11:49.035Z,18.00
2022-11-30T13:13:57.869Z,19.60
2022-11-30T13:16:06.106Z,18.27
2022-11-30T13:18:18.818Z,18.85
2022-11-30T13:20:28.501Z,18.45
2022-11-30T13:22:48.057Z,18.35
2022-11-30T13:25:01.994Z,18.85
2022-11-30T13:27:16.782Z,17.90
2022-11-30T13:29:51.978Z,20.92
2022-11-30T13:32:05.449Z,20.27
2022-11-30T13:34:26.208Z,25.33
2022-11-30T13:36:38.920Z,20.13
2022-11-30T13:38:46.486Z,19.75
2022-11-30T13:41:00.279Z,17.58
2022-11-30T13:43:05.122Z,16.40
2022-11-30T13:45:28.604Z,16.95
2022-11-30T13:47:35.790Z,17.15
2022-11-30T13:49:40.689Z,18.15
2022-11-30T13:51:45.765Z,16.77
2022-11-30T13:54:28.553Z,18.52
2022-11-30T13:56:37.990Z,18.40
2022-11-30T13:59:17.531Z,17.45
2022-11-30T14:01:28.693Z,17.58
2022-11-30T14:03:34.557Z,19.33
2022-11-30T14:05:42.368Z,19.15
2022-11-30T14:07:48.402Z,17.50
2022-11-30T14:10:25.893Z,17.95
2022-11-30T14:12:48.573Z,17.17
2022-11-30T14:14:53.375Z,17.33
2022-11-30T14:17:00.458Z,16.70
2022-11-30T14:19:09.142Z,16.15
2022-11-30T14:21:27.739Z,18.60
2022-11-30T14:23:42.210Z,17.60
2022-11-30T14:25:52.523Z,19.27
2022-11-30T14:28:00.566Z,20.08
2022-11-30T14:30:07.194Z,18.55
2022-11-30T14:32:16.286Z,19.90
2022-11-30T14:34:24.869Z,18.33
2022-11-30T14:36:37.252Z,18.35
2022-11-30T14:38:46.830Z,18.15
2022-11-30T14:40:59.053Z,17.27
2022-11-30T14:43:08.908Z,20.55
2022-11-30T14:45:21.996Z,20.13
2022-11-30T14:47:31.648Z,19.35
2022-11-30T14:49:36.388Z,18.98
2022-11-30T14:51:41.735Z,19.25
2022-11-30T14:53:54.397Z,19.33
2022-11-30T14:56:03.943Z,19.15
2022-11-30T14:58:20.843Z,18.02
2022-11-30T15:00:26.262Z,21.88
2022-11-30T15:02:39.211Z,22.67
2022-11-30T15:04:46.635Z,24.42
2022-11-30T15:06:56.171Z,21.13
2022-11-30T15:09:03.144Z,20.40
2022-11-30T15:11:10.241Z,27.25
2022-11-30T15:13:20.155Z,19.58
2022-11-30T15:15:27.884Z,20.35
2022-11-30T15:17:32.771Z,20.17
2022-11-30T15:19:37.736Z,18.70
2022-11-30T15:21:51.675Z,18.63
2022-11-30T15:23:58.735Z,20.98
2022-11-30T15:26:07.486Z,18.23
2022-11-30T15:28:14.638Z,19.67
2022-11-30T15:30:22.344Z,19.48
2022-11-30T15:32:28.234Z,20.45
2022-11-30T15:34:40.154Z,21.30
2022-11-30T15:36:45.519Z,20.10
2022-11-30T15:38:53.002Z,22.05
2022-11-30T15:41:05.627Z,20.98
2022-11-30T15:43:22.710Z,20.92
2022-11-30T15:45:31.794Z,20.40
2022-11-30T15:47:39.717Z,21.70
2022-11-30T15:49:54.351Z,22.23
2022-11-30T15:52:05.448Z,21.15
2022-11-30T15:54:10.628Z,21.65
2022-11-30T15:58:33.326Z,20.52
2022-11-30T16:00:40.724Z,19.88
2022-11-30T16:02:46.692Z,19.63
2022-11-30T16:05:24.578Z,19.15
2022-11-30T16:07:32.962Z,19.27
2022-11-30T16:09:38.803Z,18.73
2022-11-30T16:11:43.723Z,18.85
2022-11-30T16:13:49.527Z,19.00
2022-11-30T16:15:59.682Z,18.58
2022-11-30T16:18:19.047Z,18.98
2022-11-30T16:20:24.853Z,18.90
2022-11-30T16:22:29.637Z,20.67
2022-11-30T16:24:34.668Z,20.30
2022-11-30T16:26:54.856Z,20.00
2022-11-30T16:28:59.706Z,20.20
2022-11-30T16:31:18.042Z,20.40
2022-11-30T16:33:29.986Z,19.98
2022-11-30T16:35:52.037Z,20.70
2022-11-30T16:38:06.719Z,19.15
2022-11-30T16:40:17.054Z,18.73
2022-11-30T16:42:25.088Z,18.92
2022-11-30T16:44:30.936Z,18.52
2022-11-30T16:46:39.417Z,17.77
2022-11-30T16:48:44.897Z,18.02
2022-11-30T16:50:49.863Z,19.38
2022-11-30T16:52:55.017Z,18.33
2022-11-30T16:57:04.372Z,19.00
2022-11-30T16:59:14.973Z,18.92
2022-11-30T17:01:34.553Z,20.25
2022-11-30T17:03:43.341Z,27.30
2022-11-30T17:05:48.629Z,22.48
2022-11-30T17:07:53.643Z,21.58
2022-11-30T17:09:58.703Z,20.42
2022-11-30T17:12:04.355Z,20.58
2022-11-30T17:14:09.630Z,19.40
2022-11-30T17:16:14.921Z,19.48
2022-11-30T17:20:30.497Z,19.77
2022-11-30T17:22:37.743Z,20.90
2022-11-30T17:24:42.546Z,21.70
2022-11-30T17:26:47.368Z,19.83
2022-11-30T17:28:52.256Z,19.42
2022-11-30T17:30:57.097Z,20.15
2022-11-30T17:33:01.965Z,22.85
2022-11-30T17:35:07.521Z,20.90
2022-11-30T17:37:15.081Z,21.73
2022-11-30T17:39:20.180Z,20.35
2022-11-30T17:41:25.388Z,20.50
2022-11-30T17:45:34.913Z,18.70
2022-11-30T17:47:40.012Z,19.55
2022-11-30T17:49:46.576Z,18.77
2022-11-30T17:51:53.299Z,18.50
2022-11-30T17:54:00.669Z,20.02
2022-11-30T17:56:06.061Z,20.08
2022-11-30T17:58:10.945Z,20.83
2022-11-30T18:00:16.832Z,20.80
2022-11-30T18:02:21.713Z,19.80
2022-11-30T18:04:26.721Z,20.83
2022-11-30T18:06:31.623Z,19.98
2022-11-30T18:08:37.975Z,19.88
2022-11-30T18:10:48.124Z,19.67
2022-11-30T18:12:53.015Z,20.85
2022-11-30T18:14:57.835Z,22.65
2022-11-30T18:17:02.649Z,19.95
2022-11-30T18:19:12.480Z,19.95
2022-11-30T18:21:19.406Z,20.05
2022-11-30T18:23:24.183Z,26.05
2022-11-30T18:25:28.955Z,22.52
2022-11-30T18:27:36.339Z,21.83
2022-11-30T18:29:41.196Z,21.45
2022-11-30T18:31:48.526Z,19.98
2022-11-30T18:33:59.021Z,21.05
2022-11-30T18:36:06.368Z,19.38
2022-11-30T18:38:11.257Z,19.50
2022-11-30T18:40:16.685Z,20.42
2022-11-30T18:42:22.690Z,21.42
2022-11-30T18:44:30.193Z,24.40
2022-11-30T18:46:35.178Z,21.42
2022-11-30T18:48:41.361Z,20.80
2022-11-30T18:50:46.169Z,19.25
2022-11-30T18:52:50.935Z,19.98
2022-11-30T18:54:55.699Z,19.23
2022-11-30T18:57:01.705Z,19.92
2022-11-30T18:59:08.656Z,20.02
2022-11-30T19:01:18.299Z,19.08
2022-11-30T19:03:23.113Z,19.67
2022-11-30T19:05:39.823Z,19.85
2022-11-30T19:07:44.725Z,20.58
2022-11-30T19:09:52.791Z,20.08
2022-11-30T19:11:58.227Z,19.77
2022-11-30T19:16:10.746Z,21.02
2022-11-30T19:18:22.917Z,20.20
2022-11-30T19:20:28.053Z,19.85
2022-11-30T19:22:32.887Z,20.02
2022-11-30T19:24:37.645Z,19.80
2022-11-30T19:26:42.508Z,21.58
2022-11-30T19:28:48.459Z,22.58
2022-11-30T19:30:53.356Z,20.73
2022-11-30T19:32:58.222Z,20.48
2022-11-30T19:35:05.826Z,19.95
2022-11-30T19:37:10.597Z,20.08
2022-11-30T19:39:15.392Z,19.23
2022-11-30T19:41:21.571Z,20.40
2022-11-30T19:43:26.641Z,19.90
2022-11-30T19:45:31.423Z,20.02
2022-11-30T19:47:37.422Z,20.15
2022-11-30T19:49:45.945Z,19.90
2022-11-30T19:51:53.380Z,21.42
2022-11-30T19:53:58.223Z,21.17
2022-11-30T19:56:07.228Z,19.48
2022-11-30T19:58:11.987Z,20.65
2022-11-30T20:00:17.875Z,19.05
2022-11-30T20:02:22.676Z,20.08
2022-11-30T20:04:27.619Z,20.60
2022-11-30T20:06:34.774Z,19.80
2022-11-30T20:08:43.103Z,20.63
2022-11-30T20:10:49.123Z,20.55
2022-11-30T20:12:53.981Z,20.27
2022-11-30T20:14:58.733Z,20.88
2022-11-30T20:17:03.516Z,20.20
2022-11-30T20:19:08.388Z,18.90
2022-11-30T20:21:15.074Z,18.15
2022-11-30T20:23:19.846Z,18.50
2022-11-30T20:25:28.214Z,19.55
2022-11-30T20:27:33.270Z,19.00
2022-11-30T20:29:38.159Z,20.08
2022-11-30T20:31:43.487Z,18.80
2022-11-30T20:33:48.770Z,20.40
2022-11-30T20:37:58.088Z,19.08
2022-11-30T20:40:02.887Z,21.13
2022-11-30T20:42:10.330Z,20.90
2022-11-30T20:44:17.859Z,18.48
2022-11-30T20:46:24.026Z,20.20
2022-11-30T20:48:29.199Z,19.98
2022-11-30T20:50:33.976Z,19.40
2022-11-30T20:52:38.743Z,20.10
2022-11-30T20:54:43.528Z,17.33
2022-11-30T20:56:51.188Z,17.27
2022-11-30T20:58:58.904Z,17.85
2022-11-30T21:01:04.445Z,20.25
2022-11-30T21:03:09.336Z,18.45
2022-11-30T21:05:15.138Z,18.67
2022-11-30T21:07:19.972Z,17.20
2022-11-30T21:09:24.903Z,18.98
2022-11-30T21:11:31.303Z,18.65
2022-11-30T21:13:36.725Z,19.10
2022-11-30T21:15:45.611Z,18.55
2022-11-30T21:17:50.483Z,17.58
2022-11-30T21:19:55.283Z,18.30
2022-11-30T21:22:00.094Z,19.10
2022-11-30T21:24:06.844Z,18.02
2022-11-30T21:26:17.866Z,19.20
2022-11-30T21:28:22.839Z,17.70
2022-11-30T21:30:27.590Z,19.95
2022-11-30T21:32:35.157Z,19.08
2022-11-30T21:34:39.997Z,19.88
2022-11-30T21:36:44.872Z,22.33
2022-11-30T21:38:49.700Z,19.67
2022-11-30T21:40:59.142Z,20.77
2022-11-30T21:43:04.028Z,20.17
2022-11-30T21:45:09.833Z,20.42
2022-11-30T21:47:14.911Z,19.70
2022-11-30T21:49:23.731Z,18.95
2022-11-30T21:51:30.283Z,18.65
2022-11-30T21:53:37.937Z,18.85
2022-11-30T21:55:42.695Z,19.83
2022-11-30T21:57:47.639Z,20.02
2022-11-30T21:59:52.428Z,18.73
2022-11-30T22:01:57.252Z,20.33
2022-11-30T22:04:04.042Z,18.17
2022-11-30T22:06:13.516Z,19.02
2022-11-30T22:08:18.284Z,19.75
2022-11-30T22:10:23.070Z,19.50
2022-11-30T22:12:28.178Z,18.77
2022-11-30T22:14:33.178Z,19.17
2022-11-30T22:16:37.971Z,20.30
2022-11-30T22:18:45.523Z,20.02
2022-11-30T22:20:52.816Z,19.55
2022-11-30T22:23:00.308Z,19.02
2022-11-30T22:25:05.065Z,19.88
2022-11-30T22:27:09.889Z,17.92
2022-11-30T22:29:16.225Z,17.90
2022-11-30T22:31:22.977Z,20.35
2022-11-30T22:33:27.883Z,18.38
2022-11-30T22:35:32.685Z,16.98
2022-11-30T22:37:37.451Z,17.10
2022-11-30T22:39:44.881Z,22.27
2022-11-30T22:41:55.817Z,17.40
2022-11-30T22:44:01.909Z,19.02
2022-11-30T22:46:10.907Z,17.80
2022-11-30T22:48:15.803Z,17.63
2022-11-30T22:50:20.671Z,17.80
2022-11-30T22:52:48.169Z,17.48
2022-11-30T22:54:53.088Z,17.52
2022-11-30T22:56:58.074Z,17.65
2022-11-30T22:59:03.812Z,16.55
2022-11-30T23:01:13.796Z,17.15
2022-11-30T23:03:18.687Z,17.60
2022-11-30T23:05:23.564Z,17.15
2022-11-30T23:07:32.022Z,16.08
2022-11-30T23:09:37.165Z,16.67
2022-11-30T23:11:44.911Z,15.93
2022-11-30T23:13:49.973Z,16.08
2022-11-30T23:15:59.231Z,18.10
2022-11-30T23:18:04.512Z,17.13
2022-11-30T23:22:14.656Z,15.93
2022-11-30T23:24:23.937Z,16.48
2022-11-30T23:26:30.503Z,15.30
2022-11-30T23:28:39.878Z,15.85
2022-11-30T23:30:44.654Z,15.48
2022-11-30T23:32:49.485Z,17.20
2022-11-30T23:34:55.626Z,14.65
2022-11-30T23:37:00.366Z,15.43
2022-11-30T23:39:07.258Z,15.90
2022-11-30T23:41:14.240Z,16.10
2022-11-30T23:43:19.161Z,15.23
2022-11-30T23:45:26.519Z,16.40
2022-11-30T23:47:31.295Z,13.98
2022-11-30T23:49:36.458Z,15.88
2022-11-30T23:53:45.946Z,15.68
2022-11-30T23:55:50.973Z,15.55
2022-11-30T23:57:55.783Z,16.60
